createdAt,value
2023-04-22T00:00:20.983Z,8.00
2023-04-22T00:02:48.283Z,8.00
2023-04-22T00:05:18.568Z,8.00
2023-04-22T00:07:47.731Z,8.00
2023-04-22T00:10:15.091Z,8.10
2023-04-22T00:12:42.424Z,8.10
2023-04-22T00:15:10.756Z,8.10
2023-04-22T00:17:38.237Z,8.10
2023-04-22T00:20:07.665Z,8.00
2023-04-22T00:22:34.942Z,8.00
2023-04-22T00:25:02.145Z,8.00
2023-04-22T00:27:29.442Z,8.00
2023-04-22T00:29:56.631Z,8.00
2023-04-22T00:32:24.079Z,7.90
2023-04-22T00:34:52.734Z,7.80
2023-04-22T00:37:20.017Z,7.70
2023-04-22T00:39:47.156Z,7.60
2023-04-22T00:42:14.464Z,7.50
2023-04-22T00:44:42.451Z,7.40
2023-04-22T00:47:10.450Z,7.40
2023-04-22T00:49:38.245Z,7.50
2023-04-22T00:52:05.865Z,7.50
2023-04-22T00:54:36.370Z,7.60
2023-04-22T00:57:05.513Z,7.60
2023-04-22T00:59:33.403Z,7.60
2023-04-22T01:02:01.414Z,7.70
2023-04-22T01:04:29.896Z,7.60
2023-04-22T01:06:57.586Z,7.60
2023-04-22T01:09:24.825Z,7.60
2023-04-22T01:11:52.352Z,7.50
2023-04-22T01:14:19.586Z,7.50
2023-04-22T01:16:46.938Z,7.50
2023-04-22T01:19:14.112Z,7.40
2023-04-22T01:21:45.180Z,7.40
2023-04-22T01:24:12.433Z,7.40
2023-04-22T01:26:39.864Z,7.40
2023-04-22T01:29:07.511Z,7.20
2023-04-22T01:31:35.066Z,7.20
2023-04-22T01:34:02.538Z,7.10
2023-04-22T01:36:29.802Z,7.10
2023-04-22T01:38:57.100Z,7.10
2023-04-22T01:41:27.265Z,7.10
2023-04-22T01:43:57.251Z,7.10
2023-04-22T01:46:24.522Z,7.00
2023-04-22T01:48:51.822Z,7.00
2023-04-22T01:51:23.728Z,7.00
2023-04-22T01:53:51.807Z,7.00
2023-04-22T01:56:19.262Z,7.00
2023-04-22T01:58:47.048Z,6.90
2023-04-22T02:01:14.642Z,6.90
2023-04-22T02:03:42.106Z,6.90
2023-04-22T02:06:11.215Z,6.90
2023-04-22T02:08:38.424Z,6.90
2023-04-22T02:11:06.059Z,6.90
2023-04-22T02:13:39.111Z,6.90
2023-04-22T02:16:07.393Z,6.80
2023-04-22T02:18:35.091Z,6.80
2023-04-22T02:21:02.755Z,6.80
2023-04-22T02:23:30.206Z,6.80
2023-04-22T02:25:57.488Z,6.90
2023-04-22T02:28:24.652Z,6.90
2023-04-22T02:30:51.848Z,6.90
2023-04-22T02:33:19.076Z,6.90
2023-04-22T02:35:46.631Z,6.90
2023-04-22T02:38:18.931Z,6.90
2023-04-22T02:40:46.892Z,6.90
2023-04-22T02:43:14.694Z,6.90
2023-04-22T02:45:41.996Z,7.00
2023-04-22T02:48:09.616Z,7.00
2023-04-22T02:50:37.051Z,7.00
2023-04-22T02:53:04.421Z,7.00
2023-04-22T02:55:31.742Z,7.00
2023-04-22T02:57:58.918Z,7.00
2023-04-22T03:00:26.452Z,6.90
2023-04-22T03:02:54.192Z,6.90
2023-04-22T03:05:26.249Z,6.80
2023-04-22T03:07:54.075Z,6.80
2023-04-22T03:10:22.067Z,6.60
2023-04-22T03:12:50.588Z,6.80
2023-04-22T03:15:21.207Z,6.80
2023-04-22T03:17:49.256Z,6.80
2023-04-22T03:20:17.663Z,6.70
2023-04-22T03:22:44.964Z,6.70
2023-04-22T03:25:14.224Z,6.70
2023-04-22T03:27:46.058Z,6.70
2023-04-22T03:30:13.493Z,6.70
2023-04-22T03:32:40.911Z,6.70
2023-04-22T03:35:21.373Z,6.70
2023-04-22T03:37:50.562Z,6.70
2023-04-22T03:40:23.921Z,6.70
2023-04-22T03:42:51.172Z,6.70
2023-04-22T03:45:20.823Z,6.80
2023-04-22T03:47:56.728Z,6.80
2023-04-22T03:50:32.303Z,6.80
2023-04-22T03:53:01.151Z,6.80
2023-04-22T03:55:31.649Z,6.80
2023-04-22T03:57:58.896Z,6.80
2023-04-22T04:00:26.420Z,6.80
2023-04-22T04:03:06.549Z,6.80
2023-04-22T04:05:35.730Z,6.90
2023-04-22T04:08:03.858Z,6.80
2023-04-22T04:10:31.233Z,6.80
2023-04-22T04:13:00.048Z,6.80
2023-04-22T04:15:30.595Z,6.80
2023-04-22T04:18:01.420Z,6.80
2023-04-22T04:20:31.208Z,6.80
2023-04-22T04:22:59.298Z,6.80
2023-04-22T04:25:27.086Z,6.90
2023-04-22T04:27:54.655Z,6.90
2023-04-22T04:30:23.947Z,6.80
2023-04-22T04:32:54.780Z,6.90
2023-04-22T04:35:23.748Z,7.00
2023-04-22T04:37:55.386Z,7.10
2023-04-22T04:40:23.370Z,7.30
2023-04-22T04:43:08.381Z,7.40
2023-04-22T04:45:50.134Z,7.50
2023-04-22T04:48:27.775Z,7.70
2023-04-22T04:51:01.624Z,7.80
2023-04-22T04:53:32.921Z,8.00
2023-04-22T04:56:00.397Z,7.90
2023-04-22T04:58:28.759Z,8.00
2023-04-22T05:01:08.924Z,8.10
2023-04-22T05:03:36.430Z,8.30
2023-04-22T05:06:05.481Z,8.40
2023-04-22T05:08:33.876Z,8.50
2023-04-22T05:11:06.604Z,8.60
2023-04-22T05:13:34.516Z,8.70
2023-04-22T05:16:02.982Z,8.90
2023-04-22T05:18:30.825Z,9.00
2023-04-22T05:21:00.720Z,9.10
2023-04-22T05:23:28.017Z,9.20
2023-04-22T05:25:58.265Z,9.40
2023-04-22T05:28:26.612Z,9.50
2023-04-22T05:30:57.681Z,9.50
2023-04-22T05:33:27.989Z,9.70
2023-04-22T05:35:55.910Z,9.80
2023-04-22T05:38:24.130Z,9.90
2023-04-22T05:40:52.281Z,10.10
2023-04-22T05:43:20.310Z,10.40
2023-04-22T05:45:58.056Z,10.50
2023-04-22T05:48:25.437Z,10.80
2023-04-22T05:51:04.949Z,11.00
2023-04-22T05:53:32.246Z,11.10
2023-04-22T05:56:01.792Z,11.30
2023-04-22T05:58:29.205Z,11.50
2023-04-22T06:01:01.345Z,11.70
2023-04-22T06:03:47.527Z,11.90
2023-04-22T06:06:15.169Z,12.10
2023-04-22T06:08:42.448Z,12.10
2023-04-22T06:11:10.958Z,12.10
2023-04-22T06:13:38.599Z,12.30
2023-04-22T06:18:38.945Z,12.60
2023-04-22T06:21:11.362Z,12.50
2023-04-22T06:23:38.895Z,12.80
2023-04-22T06:26:06.264Z,12.80
2023-04-22T06:28:34.420Z,12.70
2023-04-22T06:31:06.194Z,13.00
2023-04-22T06:33:33.429Z,13.20
2023-04-22T06:36:02.406Z,13.40
2023-04-22T06:38:31.526Z,13.60
2023-04-22T06:41:22.637Z,13.80
2023-04-22T06:43:51.425Z,14.10
2023-04-22T06:46:18.852Z,14.20
2023-04-22T06:48:52.296Z,14.40
2023-04-22T06:51:25.595Z,14.70
2023-04-22T06:53:53.141Z,14.80
2023-04-22T06:56:20.531Z,15.00
2023-04-22T06:58:47.640Z,15.00
2023-04-22T07:01:14.848Z,15.10
2023-04-22T07:03:42.506Z,15.20
2023-04-22T07:06:14.390Z,15.00
2023-04-22T07:08:41.958Z,15.10
2023-04-22T07:11:11.466Z,15.50
2023-04-22T07:13:46.497Z,15.80
2023-04-22T07:16:13.775Z,16.20
2023-04-22T07:18:41.006Z,16.40
2023-04-22T07:21:08.343Z,16.40
2023-04-22T07:23:35.687Z,16.60
2023-04-22T07:26:03.054Z,16.70
2023-04-22T07:28:30.370Z,16.50
2023-04-22T07:30:57.670Z,16.80
2023-04-22T07:33:24.824Z,17.00
2023-04-22T07:35:52.070Z,17.20
2023-04-22T07:38:19.245Z,17.00
2023-04-22T07:40:46.471Z,17.20
2023-04-22T07:43:14.161Z,17.40
2023-04-22T07:45:41.418Z,17.30
2023-04-22T07:48:08.734Z,17.30
2023-04-22T07:50:38.795Z,17.50
2023-04-22T07:53:06.362Z,17.60
2023-04-22T07:55:34.020Z,17.60
2023-04-22T07:58:03.519Z,17.80
2023-04-22T08:00:30.735Z,18.10
2023-04-22T08:02:58.061Z,18.40
2023-04-22T08:05:25.265Z,18.80
2023-04-22T08:07:52.509Z,18.60
2023-04-22T08:10:19.828Z,18.50
2023-04-22T08:12:47.209Z,18.70
2023-04-22T08:15:14.388Z,19.20
2023-04-22T08:17:41.735Z,19.30
2023-04-22T08:20:09.481Z,19.20
2023-04-22T08:22:36.824Z,19.20
2023-04-22T08:25:04.601Z,19.50
2023-04-22T08:27:31.877Z,19.80
2023-04-22T08:29:59.332Z,19.50
2023-04-22T08:32:26.848Z,19.50
2023-04-22T08:34:57.596Z,19.30
2023-04-22T08:37:31.024Z,19.50
2023-04-22T08:39:58.204Z,20.00
2023-04-22T08:42:27.120Z,19.90
2023-04-22T08:44:55.037Z,19.70
2023-04-22T08:47:22.424Z,19.70
2023-04-22T08:49:51.968Z,19.80
2023-04-22T08:52:19.524Z,20.20
2023-04-22T08:54:46.943Z,20.50
2023-04-22T08:57:16.529Z,20.80
2023-04-22T08:59:44.378Z,21.10
2023-04-22T09:02:18.095Z,21.40
2023-04-22T09:04:49.076Z,21.40
2023-04-22T09:07:25.101Z,21.00
2023-04-22T09:09:57.743Z,21.10
2023-04-22T09:12:28.548Z,20.90
2023-04-22T09:14:56.802Z,20.90
2023-04-22T09:17:33.211Z,21.10
2023-04-22T09:20:07.846Z,20.90
2023-04-22T09:22:44.008Z,21.20
2023-04-22T09:25:26.981Z,21.60
2023-04-22T09:27:59.443Z,21.70
2023-04-22T09:30:47.020Z,21.60
2023-04-22T09:33:14.506Z,21.90
2023-04-22T09:35:43.505Z,21.70
2023-04-22T09:38:13.267Z,21.90
2023-04-22T09:40:44.470Z,22.20
2023-04-22T09:43:12.331Z,22.00
2023-04-22T09:45:43.018Z,21.90
2023-04-22T09:48:17.766Z,22.10
2023-04-22T09:50:51.198Z,22.20
2023-04-22T09:53:21.315Z,22.60
2023-04-22T09:55:54.688Z,22.80
2023-04-22T09:58:23.982Z,22.80
2023-04-22T10:00:57.226Z,23.00
2023-04-22T10:03:24.822Z,23.10
2023-04-22T10:05:52.360Z,23.20
2023-04-22T10:08:19.663Z,23.30
2023-04-22T10:10:47.277Z,23.30
2023-04-22T10:13:14.525Z,23.40
2023-04-22T10:15:53.093Z,23.70
2023-04-22T10:18:24.986Z,24.30
2023-04-22T10:20:54.541Z,24.70
2023-04-22T10:23:25.198Z,25.00
2023-04-22T10:25:56.702Z,25.40
2023-04-22T10:28:28.404Z,25.70
2023-04-22T10:30:56.105Z,25.80
2023-04-22T10:33:31.360Z,26.00
2023-04-22T10:36:10.988Z,26.00
2023-04-22T10:38:53.163Z,26.00
2023-04-22T10:41:29.176Z,26.00
2023-04-22T10:44:02.519Z,26.10
2023-04-22T10:46:37.768Z,26.00
2023-04-22T10:49:15.728Z,25.80
2023-04-22T10:51:51.774Z,25.30
2023-04-22T10:54:31.465Z,25.40
2023-04-22T10:57:07.267Z,25.70
2023-04-22T10:59:52.651Z,25.90
2023-04-22T11:02:21.724Z,25.90
2023-04-22T11:04:50.522Z,26.10
2023-04-22T11:07:22.830Z,26.40
2023-04-22T11:09:53.441Z,27.10
2023-04-22T11:12:38.678Z,27.10
2023-04-22T11:15:12.462Z,27.70
2023-04-22T11:17:43.883Z,27.80
2023-04-22T11:20:12.923Z,27.70
2023-04-22T11:22:51.570Z,27.80
2023-04-22T11:25:19.933Z,27.60
2023-04-22T11:27:47.688Z,28.00
2023-04-22T11:30:21.453Z,27.90
2023-04-22T11:32:54.734Z,27.40
2023-04-22T11:35:23.996Z,26.90
2023-04-22T11:37:58.126Z,27.30
2023-04-22T11:40:32.105Z,27.20
2023-04-22T11:43:02.930Z,27.60
2023-04-22T11:45:33.566Z,27.90
2023-04-22T11:48:02.410Z,28.30
2023-04-22T11:50:36.259Z,28.20
2023-04-22T11:53:19.530Z,28.60
2023-04-22T11:55:53.074Z,28.40
2023-04-22T11:58:29.232Z,28.30
2023-04-22T12:00:59.025Z,28.00
2023-04-22T12:03:29.015Z,28.10
2023-04-22T12:06:02.935Z,28.80
2023-04-22T12:08:36.781Z,28.80
2023-04-22T12:11:07.252Z,28.70
2023-04-22T12:13:46.350Z,28.50
2023-04-22T12:16:18.279Z,28.20
2023-04-22T12:18:53.940Z,27.50
2023-04-22T12:21:28.310Z,27.40
2023-04-22T12:24:04.273Z,27.80
2023-04-22T12:26:31.734Z,28.40
2023-04-22T12:29:00.615Z,28.80
2023-04-22T12:31:28.311Z,28.60
2023-04-22T12:33:56.383Z,29.50
2023-04-22T12:36:24.986Z,29.00
2023-04-22T12:38:52.277Z,29.10
2023-04-22T12:41:19.465Z,28.50
2023-04-22T12:43:46.717Z,28.00
2023-04-22T12:46:13.926Z,28.30
2023-04-22T12:48:42.762Z,28.20
2023-04-22T12:51:09.964Z,28.50
2023-04-22T12:53:37.421Z,29.20
2023-04-22T12:56:04.706Z,29.70
2023-04-22T12:58:31.822Z,29.10
2023-04-22T13:00:59.005Z,29.00
2023-04-22T13:03:29.264Z,29.30
2023-04-22T13:05:56.879Z,29.30
2023-04-22T13:08:24.100Z,29.90
2023-04-22T13:10:51.385Z,30.50
2023-04-22T13:13:19.497Z,30.30
2023-04-22T13:15:49.956Z,29.60
2023-04-22T13:18:17.236Z,29.30
2023-04-22T13:20:44.534Z,29.80
2023-04-22T13:23:13.265Z,30.60
2023-04-22T13:25:40.630Z,31.20
2023-04-22T13:28:07.978Z,31.10
2023-04-22T13:30:36.867Z,31.00
2023-04-22T13:33:04.108Z,31.20
2023-04-22T13:35:31.407Z,31.20
2023-04-22T13:37:59.036Z,31.20
2023-04-22T13:40:27.394Z,31.20
2023-04-22T13:42:55.744Z,31.20
2023-04-22T13:45:22.982Z,31.20
2023-04-22T13:47:50.400Z,30.30
2023-04-22T13:50:17.861Z,30.10
2023-04-22T13:52:45.199Z,30.50
2023-04-22T13:55:13.746Z,31.20
2023-04-22T13:57:41.148Z,31.10
2023-04-22T14:00:12.432Z,30.90
2023-04-22T14:02:39.867Z,29.40
2023-04-22T14:05:07.913Z,27.80
2023-04-22T14:07:35.042Z,26.60
2023-04-22T14:10:02.255Z,25.70
2023-04-22T14:12:29.494Z,25.00
2023-04-22T14:14:56.754Z,24.20
2023-04-22T14:17:23.976Z,23.80
2023-04-22T14:19:51.217Z,23.50
2023-04-22T14:22:18.307Z,23.50
2023-04-22T14:24:45.654Z,23.30
2023-04-22T14:27:12.827Z,23.10
2023-04-22T14:29:40.455Z,23.00
2023-04-22T14:32:07.769Z,22.90
2023-04-22T14:34:35.120Z,22.90
2023-04-22T14:37:02.294Z,22.80
2023-04-22T14:39:29.537Z,22.80
2023-04-22T14:41:57.956Z,22.80
2023-04-22T14:44:25.215Z,22.90
2023-04-22T14:46:52.399Z,22.80
2023-04-22T14:49:19.553Z,22.80
2023-04-22T14:51:47.288Z,22.80
2023-04-22T14:54:14.421Z,22.80
2023-04-22T14:56:41.646Z,22.80
2023-04-22T14:59:08.826Z,22.80
2023-04-22T15:01:37.289Z,22.70
2023-04-22T15:04:04.632Z,22.70
2023-04-22T15:06:32.876Z,22.70
2023-04-22T15:09:00.238Z,22.70
2023-04-22T15:11:27.409Z,22.60
2023-04-22T15:13:54.607Z,22.60
2023-04-22T15:16:21.761Z,22.60
2023-04-22T15:18:48.927Z,22.50
2023-04-22T15:21:16.120Z,22.40
2023-04-22T15:23:43.210Z,22.50
2023-04-22T15:26:10.347Z,22.50
2023-04-22T15:28:37.546Z,22.60
2023-04-22T15:31:04.968Z,22.60
2023-04-22T15:33:32.523Z,22.60
2023-04-22T15:35:59.667Z,22.50
2023-04-22T15:38:28.031Z,22.50
2023-04-22T15:40:55.253Z,22.50
2023-04-22T15:43:22.356Z,22.50
2023-04-22T15:45:50.014Z,22.40
2023-04-22T15:48:17.237Z,22.30
2023-04-22T15:50:44.490Z,22.30
2023-04-22T15:53:11.645Z,22.30
2023-04-22T15:55:39.173Z,22.40
2023-04-22T15:58:06.494Z,22.30
2023-04-22T16:00:34.228Z,22.30
2023-04-22T16:03:02.799Z,22.20
2023-04-22T16:05:30.924Z,22.10
2023-04-22T16:07:58.012Z,22.00
2023-04-22T16:10:26.384Z,21.90
2023-04-22T16:12:53.651Z,21.90
2023-04-22T16:15:23.159Z,21.60
2023-04-22T16:17:50.450Z,21.70
2023-04-22T16:20:17.873Z,21.60
2023-04-22T16:22:45.149Z,21.60
2023-04-22T16:25:12.333Z,21.40
2023-04-22T16:27:39.476Z,21.40
2023-04-22T16:30:07.615Z,21.60
2023-04-22T16:32:35.070Z,21.40
2023-04-22T16:35:02.487Z,21.50
2023-04-22T16:37:29.571Z,21.60
2023-04-22T16:39:56.807Z,21.40
2023-04-22T16:42:23.951Z,22.40
2023-04-22T16:44:51.457Z,21.50
2023-04-22T16:47:19.669Z,21.40
2023-04-22T16:49:46.937Z,21.40
2023-04-22T16:52:14.088Z,21.40
2023-04-22T16:54:42.492Z,21.50
2023-04-22T16:57:11.619Z,21.60
2023-04-22T16:59:39.374Z,21.70
2023-04-22T17:02:06.788Z,21.80
2023-04-22T17:04:34.164Z,21.80
2023-04-22T17:07:01.420Z,21.70
2023-04-22T17:09:28.592Z,21.60
2023-04-22T17:11:56.545Z,21.80
2023-04-22T17:14:23.677Z,21.70
2023-04-22T17:16:51.239Z,21.60
2023-04-22T17:19:18.459Z,21.50
2023-04-22T17:21:45.936Z,21.40
2023-04-22T17:24:13.408Z,21.30
2023-04-22T17:26:40.757Z,21.20
2023-04-22T17:29:07.883Z,21.10
2023-04-22T17:31:35.084Z,21.00
2023-04-22T17:34:03.354Z,20.90
2023-04-22T17:36:31.748Z,20.90
2023-04-22T17:38:58.964Z,20.80
2023-04-22T17:41:26.149Z,20.80
2023-04-22T17:43:53.370Z,20.70
2023-04-22T17:46:21.006Z,20.50
2023-04-22T17:48:49.008Z,20.40
2023-04-22T17:51:16.102Z,20.30
2023-04-22T17:53:43.306Z,20.10
2023-04-22T17:56:10.678Z,20.00
2023-04-22T17:58:38.745Z,19.90
2023-04-22T18:01:07.142Z,19.80
2023-04-22T18:03:34.757Z,19.70
2023-04-22T18:06:02.310Z,19.60
2023-04-22T18:08:29.476Z,19.50
2023-04-22T18:10:56.722Z,19.40
2023-04-22T18:13:23.866Z,19.30
2023-04-22T18:15:51.045Z,19.20
2023-04-22T18:18:18.219Z,19.10
2023-04-22T18:20:45.742Z,18.90
2023-04-22T18:23:13.028Z,18.90
2023-04-22T18:25:40.362Z,18.80
2023-04-22T18:28:07.521Z,18.70
2023-04-22T18:30:34.760Z,18.70
2023-04-22T18:33:04.593Z,18.70
2023-04-22T18:35:32.990Z,18.60
2023-04-22T18:38:00.247Z,18.50
2023-04-22T18:40:27.340Z,18.40
2023-04-22T18:42:54.495Z,18.30
2023-04-22T18:45:23.080Z,18.20
2023-04-22T18:47:50.571Z,18.10
2023-04-22T18:50:18.025Z,18.10
2023-04-22T18:52:45.548Z,18.10
2023-04-22T18:55:12.702Z,18.00
2023-04-22T18:57:41.418Z,18.00
2023-04-22T19:00:09.759Z,17.90
2023-04-22T19:02:39.864Z,17.90
2023-04-22T19:05:09.572Z,17.90
2023-04-22T19:07:38.215Z,17.80
2023-04-22T19:10:07.224Z,17.80
2023-04-22T19:12:34.432Z,17.80
2023-04-22T19:15:02.273Z,17.70
2023-04-22T19:17:29.673Z,17.70
2023-04-22T19:19:57.113Z,17.70
2023-04-22T19:22:24.664Z,17.60
2023-04-22T19:24:52.045Z,17.50
2023-04-22T19:27:19.486Z,17.50
2023-04-22T19:29:53.424Z,17.50
2023-04-22T19:32:21.263Z,17.40
2023-04-22T19:34:49.955Z,17.40
2023-04-22T19:37:17.307Z,17.30
2023-04-22T19:39:44.786Z,17.30
2023-04-22T19:42:12.342Z,17.30
2023-04-22T19:44:43.039Z,17.20
2023-04-22T19:47:10.908Z,17.20
2023-04-22T19:49:39.088Z,17.10
2023-04-22T19:52:10.906Z,17.10
2023-04-22T19:54:41.374Z,17.00
2023-04-22T19:57:10.346Z,17.00
2023-04-22T19:59:39.815Z,17.00
2023-04-22T20:02:09.700Z,16.90
2023-04-22T20:04:37.820Z,16.90
2023-04-22T20:07:06.902Z,16.80
2023-04-22T20:09:36.378Z,16.70
2023-04-22T20:12:05.052Z,16.70
2023-04-22T20:14:32.874Z,16.70
2023-04-22T20:17:00.312Z,16.70
2023-04-22T20:19:28.546Z,16.70
2023-04-22T20:21:57.397Z,16.70
2023-04-22T20:24:27.724Z,16.60
2023-04-22T20:26:56.312Z,16.60
2023-04-22T20:29:24.254Z,16.60
2023-04-22T20:31:51.788Z,16.50
2023-04-22T20:34:19.218Z,16.50
2023-04-22T20:36:46.825Z,16.50
2023-04-22T20:39:15.809Z,16.40
2023-04-22T20:41:43.618Z,16.40
2023-04-22T20:44:10.898Z,16.30
2023-04-22T20:46:38.862Z,16.30
2023-04-22T20:49:07.059Z,16.30
2023-04-22T20:51:34.376Z,16.20
2023-04-22T20:54:01.741Z,16.20
2023-04-22T20:56:28.918Z,16.20
2023-04-22T20:58:56.128Z,16.20
2023-04-22T21:01:24.442Z,16.20
2023-04-22T21:03:54.884Z,16.20
2023-04-22T21:06:22.612Z,16.20
2023-04-22T21:08:50.973Z,16.10
2023-04-22T21:11:18.844Z,16.10
2023-04-22T21:13:46.704Z,16.10
2023-04-22T21:16:18.724Z,16.10
2023-04-22T21:18:47.623Z,16.10
2023-04-22T21:21:18.014Z,16.10
2023-04-22T21:23:46.200Z,16.10
2023-04-22T21:26:15.176Z,16.10
2023-04-22T21:28:43.143Z,16.10
2023-04-22T21:31:11.819Z,16.10
2023-04-22T21:33:39.239Z,16.10
2023-04-22T21:36:06.747Z,16.10
2023-04-22T21:38:34.213Z,16.00
2023-04-22T21:41:01.866Z,16.00
2023-04-22T21:43:29.737Z,16.00
2023-04-22T21:45:57.462Z,16.10
2023-04-22T21:48:25.022Z,16.10
2023-04-22T21:50:52.593Z,16.10
2023-04-22T21:53:20.751Z,16.10
2023-04-22T21:55:48.220Z,16.10
2023-04-22T21:58:15.651Z,16.00
2023-04-22T22:00:43.684Z,16.10
2023-04-22T22:03:12.874Z,16.10
2023-04-22T22:05:41.196Z,16.10
2023-04-22T22:08:09.117Z,16.00
2023-04-22T22:10:36.520Z,16.00
2023-04-22T22:13:03.868Z,16.00
2023-04-22T22:15:31.307Z,16.00
2023-04-22T22:17:59.419Z,16.00
2023-04-22T22:20:26.751Z,16.00
2023-04-22T22:22:53.847Z,16.00
2023-04-22T22:25:21.049Z,16.00
2023-04-22T22:27:49.212Z,15.90
2023-04-22T22:30:21.376Z,15.90
2023-04-22T22:32:48.754Z,15.90
2023-04-22T22:35:16.335Z,15.90
2023-04-22T22:37:44.645Z,15.90
2023-04-22T22:40:12.725Z,16.00
2023-04-22T22:42:40.197Z,15.90
2023-04-22T22:45:08.144Z,15.90
2023-04-22T22:47:35.903Z,15.80
2023-04-22T22:50:03.445Z,15.80
2023-04-22T22:52:30.800Z,15.80
2023-04-22T22:54:57.983Z,15.80
2023-04-22T22:57:25.116Z,15.80
2023-04-22T22:59:52.275Z,15.80
2023-04-22T23:02:19.778Z,15.80
2023-04-22T23:04:47.007Z,15.80
2023-04-22T23:07:14.760Z,15.80
2023-04-22T23:09:41.982Z,15.70
2023-04-22T23:12:09.186Z,15.70
2023-04-22T23:14:36.537Z,15.70
2023-04-22T23:17:03.952Z,15.70
2023-04-22T23:19:31.853Z,15.60
2023-04-22T23:21:59.021Z,15.60
2023-04-22T23:24:26.596Z,15.60
2023-04-22T23:26:54.136Z,15.60
2023-04-22T23:29:21.788Z,15.60
2023-04-22T23:31:51.615Z,15.60
2023-04-22T23:34:22.680Z,15.60
2023-04-22T23:36:50.094Z,15.60
2023-04-22T23:39:17.372Z,15.60
2023-04-22T23:41:44.851Z,15.50
2023-04-22T23:44:11.929Z,15.30
2023-04-22T23:46:39.169Z,15.30
2023-04-22T23:49:07.172Z,15.20
2023-04-22T23:51:35.031Z,15.20
2023-04-22T23:54:02.213Z,15.30
2023-04-22T23:56:29.899Z,15.30
2023-04-22T23:58:57.450Z,15.30
